Ekwok, AK

3:34 PM AKDT on August 20, 2014 (GMT -0800)
Egegik | Change Station
CLOSE
Current Station
Airport
Location: Egegik,
Elevation: 92 ft
Nearby Weather Stations

Elev 92 ft 58.19 °N, 157.39 °W | Updated 18 minutes ago

Mostly Cloudy
Mostly Cloudy
63 °F
Feels Like 63 °F
N
12
Wind Variable Wind from WNW

Today
High -- | Low -- °F
--% Chance of Precip.
Yesterday
High -- | Low -- °F
Precip. -- in
6:59 AM 10:05 PM
Waning Crescent, 18% visible
Pressure 30.17 in
Visibility 10.0 miles
Clouds Mostly Cloudy 8500 ft
Dew Point 54 °F
Humidity 72%
Rainfall 0.00 in
Snow Depth Not available.
UV 3 out of 12
Pollen Not available.
Air Quality Not available.
Flu Activity Not available.
METAR PAII 202316Z AUTO 30010KT 10SM BKN085 17/12 A3017 RMK AO1

More Conditions Fewer Conditions

Pressure 30.17 in
Visibility 10.0 miles
Clouds Mostly Cloudy 8500 ft
Dew Point 54 °F
Humidity 72%
Rainfall 0.00 in
Snow Depth Not available.
UV 3 out of 12
Pollen Not available.
Air Quality Not available.
Flu Activity Not available.
METAR PAII 202316Z AUTO 30010KT 10SM BKN085 17/12 A3017 RMK AO1

More Conditions Fewer Conditions

10-Day Weather Forecast

Almanac

Astronomy

Aug. 20, 2014 Rise Set
Actual Time 6:59 AM AKDT 10:05 PM AKDT
Civil Twilight 6:12 AM AKDT 10:53 PM AKDT
Nautical Twilight 5:05 AM AKDT 11:58 PM AKDT
Astronomical Twilight 3:02 AM AKDT 1:49 AM AKDT
Moon 2:20 AM AKDT 7:25 PM AKDT
Length of Visible Light 16h 41m
Length of Day
15h 06m
Tomorrow will be 5m 8s shorter.
Waning Crescent, 18% of the Moon is Illuminated
Today
Waning Crescent
Aug 25
New
Sep 2
First Quarter
Sep 8
Full
Sep 15
Last Quarter

Today's Extremes

State Highs State Lows

Community

WunderPhotos

Upload Photos

1,745,799 photos uploaded!

Nearby

Snow Depth

Station Depth Elevation
Mcneil Canyon 1 in 1320 ft
MF Bradley River 313 in 2300 ft
Cooper Lake 37 in 1200 ft
Summit Creek 0 in 1400 ft
Point Mackenzie 1 in 200 ft

Earthquake Activity

City Distance Mag. Time & Date
No recent earthquake activity has been reported nearby.
Minimum magnitude displayed is 2.5.

Coastal Water Temperatures

Place Temperature
No Stations Reporting

Nearby Weather Stations